createdAt,value
2023-04-02T00:02:22.626Z,9.59
2023-04-02T00:05:31.523Z,9.54
2023-04-02T00:08:39.030Z,9.57
2023-04-02T00:11:45.512Z,9.53
2023-04-02T00:14:58.751Z,9.45
2023-04-02T00:18:02.305Z,9.31
2023-04-02T00:21:12.751Z,9.34
2023-04-02T00:24:21.082Z,9.37
2023-04-02T00:27:23.801Z,9.34
2023-04-02T00:30:26.779Z,9.29
2023-04-02T00:33:31.668Z,9.39
2023-04-02T00:36:34.736Z,9.26
2023-04-02T00:39:41.605Z,9.16
2023-04-02T00:42:44.869Z,9.27
2023-04-02T00:45:51.228Z,9.28
2023-04-02T00:49:10.764Z,9.27
2023-04-02T00:52:16.649Z,9.28
2023-04-02T00:55:26.911Z,9.22
2023-04-02T00:58:34.901Z,9.19
2023-04-02T01:01:42.695Z,9.15
2023-04-02T01:04:55.616Z,9.24
2023-04-02T01:08:04.602Z,9.30
2023-04-02T01:11:44.170Z,9.27
2023-04-02T01:14:49.941Z,9.36
2023-04-02T01:18:20.785Z,9.35
2023-04-02T01:21:55.415Z,9.40
2023-04-02T01:24:58.408Z,9.32
2023-04-02T01:28:09.574Z,9.44
2023-04-02T01:31:12.337Z,9.53
2023-04-02T01:34:18.163Z,9.53
2023-04-02T01:37:36.744Z,9.44
2023-04-02T01:41:10.765Z,9.62
2023-04-02T01:44:24.559Z,9.64
2023-04-02T01:47:29.031Z,9.62
2023-04-02T01:50:39.685Z,9.70
2023-04-02T01:53:42.552Z,9.69
2023-04-02T01:56:47.186Z,9.76
2023-04-02T01:59:50.276Z,9.66
2023-04-02T02:02:53.067Z,9.81
2023-04-02T02:05:57.013Z,9.73
2023-04-02T02:09:03.814Z,9.72
2023-04-02T02:12:07.297Z,9.67
2023-04-02T02:15:17.363Z,9.72
2023-04-02T02:18:23.586Z,9.79
2023-04-02T02:21:39.170Z,9.60
2023-04-02T02:24:42.270Z,9.66
2023-04-02T02:27:55.837Z,9.68
2023-04-02T02:31:01.511Z,9.69
2023-04-02T02:34:14.775Z,9.69
2023-04-02T02:37:23.247Z,9.82
2023-04-02T02:40:40.977Z,9.70
2023-04-02T02:43:52.087Z,9.65
2023-04-02T02:47:06.821Z,9.82
2023-04-02T02:50:18.146Z,9.72
2023-04-02T02:53:24.096Z,9.62
2023-04-02T02:56:28.512Z,9.68
2023-04-02T02:59:32.236Z,9.72
2023-04-02T03:02:37.572Z,9.74
2023-04-02T03:05:41.678Z,9.75
2023-04-02T03:08:50.826Z,9.66
2023-04-02T03:12:12.856Z,9.69
2023-04-02T03:15:26.636Z,9.76
2023-04-02T03:18:38.553Z,9.63
2023-04-02T03:21:48.698Z,9.66
2023-04-02T03:24:59.844Z,9.67
2023-04-02T03:28:06.681Z,9.68
2023-04-02T03:31:21.316Z,9.77
2023-04-02T03:34:29.663Z,9.62
2023-04-02T03:37:48.523Z,9.55
2023-04-02T03:41:15.928Z,9.59
2023-04-02T03:44:24.466Z,9.57
2023-04-02T03:47:41.599Z,9.36
2023-04-02T03:50:50.701Z,9.51
2023-04-02T03:53:53.949Z,9.53
2023-04-02T03:56:57.154Z,9.38
2023-04-02T04:00:26.059Z,9.36
2023-04-02T04:03:41.099Z,9.34
2023-04-02T04:06:45.484Z,9.33
2023-04-02T04:09:51.941Z,9.27
2023-04-02T04:13:01.126Z,9.23
2023-04-02T04:16:25.426Z,9.24
2023-04-02T04:19:55.569Z,9.22
2023-04-02T04:23:10.732Z,9.18
2023-04-02T04:26:53.554Z,9.24
2023-04-02T04:30:24.560Z,9.19
2023-04-02T04:33:40.348Z,9.11
2023-04-02T04:36:54.521Z,9.00
2023-04-02T04:40:11.942Z,9.09
2023-04-02T04:43:19.476Z,9.06
2023-04-02T04:46:32.946Z,9.03
2023-04-02T04:49:41.899Z,8.95
2023-04-02T04:52:45.092Z,8.95
2023-04-02T04:55:53.472Z,8.97
2023-04-02T04:59:19.285Z,9.05
2023-04-02T05:02:32.927Z,8.93
2023-04-02T05:05:40.748Z,9.00
2023-04-02T05:08:47.673Z,8.99
2023-04-02T05:11:55.867Z,9.02
2023-04-02T05:15:04.529Z,9.02
2023-04-02T05:18:19.798Z,9.15
2023-04-02T05:21:44.763Z,9.31
2023-04-02T05:24:56.332Z,9.36
2023-04-02T05:28:14.966Z,9.27
2023-04-02T05:31:26.247Z,9.42
2023-04-02T05:34:37.177Z,9.30
2023-04-02T05:37:40.684Z,9.66
2023-04-02T05:40:46.187Z,9.48
2023-04-02T05:43:50.597Z,9.61
2023-04-02T05:46:59.646Z,9.74
2023-04-02T05:50:09.524Z,9.80
2023-04-02T05:53:17.884Z,9.83
2023-04-02T05:56:44.066Z,9.97
2023-04-02T05:59:51.025Z,10.03
2023-04-02T06:03:07.532Z,10.23
2023-04-02T06:06:19.102Z,10.40
2023-04-02T06:09:34.142Z,10.51
2023-04-02T06:13:03.406Z,10.51
2023-04-02T06:16:06.997Z,10.87
2023-04-02T06:19:21.073Z,10.89
2023-04-02T06:22:37.072Z,10.98
2023-04-02T06:25:53.297Z,11.04
2023-04-02T06:29:24.709Z,11.27
2023-04-02T06:32:29.823Z,11.33
2023-04-02T06:35:34.622Z,11.43
2023-04-02T06:38:40.975Z,11.50
2023-04-02T06:41:46.792Z,11.66
2023-04-02T06:44:51.483Z,11.82
2023-04-02T06:47:55.602Z,11.84
2023-04-02T06:51:07.285Z,12.01
2023-04-02T06:54:14.986Z,12.23
2023-04-02T06:57:18.302Z,12.22
2023-04-02T07:00:32.954Z,12.26
2023-04-02T07:03:36.428Z,12.43
2023-04-02T07:06:39.933Z,12.50
2023-04-02T07:09:42.958Z,12.54
2023-04-02T07:12:47.261Z,12.61
2023-04-02T07:15:55.341Z,12.67
2023-04-02T07:18:58.908Z,12.77
2023-04-02T07:22:02.454Z,12.94
2023-04-02T07:25:06.433Z,13.00
2023-04-02T07:28:09.283Z,13.32
2023-04-02T07:31:24.323Z,13.42
2023-04-02T07:34:27.252Z,13.76
2023-04-02T07:37:32.721Z,13.80
2023-04-02T07:40:35.796Z,13.92
2023-04-02T07:43:39.185Z,14.10
2023-04-02T07:46:42.256Z,14.14
2023-04-02T07:49:44.849Z,14.09
2023-04-02T07:52:47.763Z,14.23
2023-04-02T07:55:52.935Z,14.29
2023-04-02T07:58:55.815Z,14.38
2023-04-02T08:01:58.842Z,14.51
2023-04-02T08:05:04.533Z,14.56
2023-04-02T08:08:07.134Z,14.47
2023-04-02T08:11:10.509Z,14.61
2023-04-02T08:14:13.334Z,14.61
2023-04-02T08:17:16.557Z,14.61
2023-04-02T08:20:21.261Z,14.83
2023-04-02T08:23:24.506Z,14.84
2023-04-02T08:26:27.334Z,14.74
2023-04-02T08:29:32.278Z,14.77
2023-04-02T08:32:36.866Z,14.48
2023-04-02T08:35:40.006Z,14.23
2023-04-02T08:38:43.342Z,14.52
2023-04-02T08:41:58.688Z,14.78
2023-04-02T08:45:40.699Z,14.77
2023-04-02T08:48:46.939Z,14.80
2023-04-02T08:51:49.749Z,14.91
2023-04-02T08:54:53.590Z,15.07
2023-04-02T08:58:15.237Z,15.06
2023-04-02T09:01:36.217Z,15.16
2023-04-02T09:04:40.983Z,15.28
2023-04-02T09:07:43.891Z,15.32
2023-04-02T09:11:06.845Z,15.41
2023-04-02T09:14:17.455Z,15.52
2023-04-02T09:17:22.984Z,15.70
2023-04-02T09:20:26.733Z,15.76
2023-04-02T09:23:29.271Z,15.63
2023-04-02T09:26:33.289Z,15.84
2023-04-02T09:29:41.431Z,15.94
2023-04-02T09:32:53.353Z,16.16
2023-04-02T09:35:57.886Z,16.34
2023-04-02T09:39:01.537Z,16.08
2023-04-02T09:42:08.838Z,16.27
2023-04-02T09:45:23.287Z,16.35
2023-04-02T09:48:32.033Z,16.23
2023-04-02T09:51:36.588Z,16.12
2023-04-02T09:54:41.651Z,16.37
2023-04-02T09:57:46.254Z,16.22
2023-04-02T10:00:53.384Z,16.25
2023-04-02T10:03:56.951Z,15.98
2023-04-02T10:06:59.493Z,15.88
2023-04-02T10:10:21.226Z,16.02
2023-04-02T10:13:30.726Z,16.16
2023-04-02T10:16:43.850Z,16.23
2023-04-02T10:20:02.631Z,16.31
2023-04-02T10:23:06.562Z,16.33
2023-04-02T10:26:17.866Z,16.48
2023-04-02T10:29:29.846Z,16.54
2023-04-02T10:32:40.536Z,16.57
2023-04-02T10:36:05.349Z,16.45
2023-04-02T10:39:21.861Z,16.50
2023-04-02T10:42:32.850Z,16.37
2023-04-02T10:45:41.646Z,16.47
2023-04-02T10:49:05.479Z,16.50
2023-04-02T10:52:21.466Z,16.72
2023-04-02T10:55:26.519Z,16.78
2023-04-02T10:58:34.979Z,16.90
2023-04-02T11:01:39.992Z,17.20
2023-04-02T11:04:45.709Z,17.12
2023-04-02T11:08:15.972Z,17.13
2023-04-02T11:11:22.650Z,17.58
2023-04-02T11:14:27.787Z,17.72
2023-04-02T11:17:30.378Z,17.71
2023-04-02T11:20:48.684Z,17.90
2023-04-02T11:24:00.396Z,17.99
2023-04-02T11:27:14.472Z,17.74
2023-04-02T11:30:25.820Z,18.21
2023-04-02T11:33:38.402Z,18.34
2023-04-02T11:36:52.765Z,18.48
2023-04-02T11:39:58.255Z,18.26
2023-04-02T11:43:32.979Z,18.14
2023-04-02T11:46:40.182Z,18.17
2023-04-02T11:49:55.071Z,17.75
2023-04-02T11:53:13.602Z,17.40
2023-04-02T11:56:41.253Z,17.76
2023-04-02T12:00:18.103Z,17.94
2023-04-02T12:03:46.318Z,18.23
2023-04-02T12:07:07.199Z,18.35
2023-04-02T12:10:34.504Z,18.50
2023-04-02T12:13:42.175Z,18.47
2023-04-02T12:16:45.065Z,18.43
2023-04-02T12:19:49.900Z,18.80
2023-04-02T12:22:54.604Z,18.43
2023-04-02T12:26:08.410Z,18.08
2023-04-02T12:29:23.167Z,17.99
2023-04-02T12:32:30.372Z,17.86
2023-04-02T12:35:35.066Z,17.86
2023-04-02T12:38:48.634Z,17.86
2023-04-02T12:41:51.956Z,18.10
2023-04-02T12:44:54.611Z,18.29
2023-04-02T12:47:58.443Z,18.36
2023-04-02T12:51:01.824Z,18.19
2023-04-02T12:54:04.974Z,18.09
2023-04-02T12:57:25.905Z,17.49
2023-04-02T13:00:30.702Z,17.15
2023-04-02T13:03:33.808Z,17.43
2023-04-02T13:06:37.286Z,17.41
2023-04-02T13:09:50.031Z,17.96
2023-04-02T13:13:01.701Z,17.95
2023-04-02T13:16:19.719Z,18.16
2023-04-02T13:19:25.548Z,18.42
2023-04-02T13:22:31.940Z,18.53
2023-04-02T13:25:36.465Z,18.59
2023-04-02T13:28:39.398Z,18.73
2023-04-02T13:31:42.419Z,18.55
2023-04-02T13:34:45.279Z,18.63
2023-04-02T13:37:49.034Z,18.47
2023-04-02T13:40:51.748Z,18.51
2023-04-02T13:43:55.879Z,18.61
2023-04-02T13:46:59.411Z,18.60
2023-04-02T13:50:02.495Z,18.68
2023-04-02T13:53:09.672Z,18.77
2023-04-02T13:56:13.353Z,18.64
2023-04-02T13:59:16.363Z,18.54
2023-04-02T14:02:22.995Z,18.68
2023-04-02T14:05:38.788Z,18.34
2023-04-02T14:08:57.049Z,18.45
2023-04-02T14:12:15.437Z,18.29
2023-04-02T14:15:33.278Z,18.40
2023-04-02T14:18:49.712Z,18.23
2023-04-02T14:22:21.040Z,18.20
2023-04-02T14:25:46.240Z,18.33
2023-04-02T14:29:14.057Z,18.16
2023-04-02T14:32:23.018Z,18.28
2023-04-02T14:35:34.152Z,18.24
2023-04-02T14:38:43.244Z,18.27
2023-04-02T14:41:58.487Z,18.51
2023-04-02T14:45:05.926Z,18.43
2023-04-02T14:48:50.304Z,18.17
2023-04-02T14:52:11.670Z,17.75
2023-04-02T14:55:36.297Z,16.88
2023-04-02T14:58:43.012Z,15.99
2023-04-02T15:01:48.233Z,15.67
2023-04-02T15:05:01.217Z,15.29
2023-04-02T15:08:19.843Z,15.13
2023-04-02T15:11:30.429Z,15.12
2023-04-02T15:14:36.925Z,14.95
2023-04-02T15:17:40.003Z,14.89
2023-04-02T15:21:06.716Z,14.80
2023-04-02T15:24:18.698Z,14.41
2023-04-02T15:27:39.735Z,14.70
2023-04-02T15:30:43.775Z,14.32
2023-04-02T15:33:49.362Z,14.14
2023-04-02T15:37:00.993Z,13.98
2023-04-02T15:40:20.849Z,14.08
2023-04-02T15:43:29.528Z,13.93
2023-04-02T15:46:56.162Z,13.71
2023-04-02T15:50:14.432Z,13.76
2023-04-02T15:53:16.838Z,13.36
2023-04-02T15:56:43.235Z,13.33
2023-04-02T16:00:09.775Z,13.20
2023-04-02T16:03:47.985Z,13.22
2023-04-02T16:06:57.379Z,13.25
2023-04-02T16:10:06.946Z,13.26
2023-04-02T16:13:29.238Z,13.28
2023-04-02T16:16:35.060Z,13.21
2023-04-02T16:19:51.909Z,13.18
2023-04-02T16:23:01.433Z,13.25
2023-04-02T16:26:34.369Z,13.57
2023-04-02T16:29:55.361Z,13.25
2023-04-02T16:33:10.510Z,13.32
2023-04-02T16:36:35.001Z,13.16
2023-04-02T16:39:56.899Z,13.12
2023-04-02T16:43:21.711Z,13.18
2023-04-02T16:46:54.594Z,13.02
2023-04-02T16:50:11.685Z,13.00
2023-04-02T16:53:22.269Z,13.02
2023-04-02T16:56:35.514Z,13.00
2023-04-02T16:59:53.625Z,13.02
2023-04-02T17:03:13.686Z,12.99
2023-04-02T17:06:44.033Z,12.86
2023-04-02T17:09:51.638Z,12.86
2023-04-02T17:13:24.171Z,12.91
2023-04-02T17:16:45.625Z,12.82
2023-04-02T17:19:51.282Z,12.77
2023-04-02T17:22:56.468Z,12.96
2023-04-02T17:26:07.248Z,12.65
2023-04-02T17:29:16.266Z,12.65
2023-04-02T17:32:32.154Z,12.55
2023-04-02T17:35:59.901Z,12.53
2023-04-02T17:39:47.409Z,12.42
2023-04-02T17:43:05.354Z,12.40
2023-04-02T17:46:22.946Z,12.31
2023-04-02T17:49:26.290Z,12.25
2023-04-02T17:53:09.517Z,12.20
2023-04-02T17:56:36.541Z,12.15
2023-04-02T18:00:06.232Z,12.01
2023-04-02T18:03:44.198Z,12.05
2023-04-02T18:07:12.251Z,12.00
2023-04-02T18:10:35.686Z,11.79
2023-04-02T18:13:46.098Z,11.78
2023-04-02T18:17:01.630Z,11.60
2023-04-02T18:20:20.400Z,11.48
2023-04-02T18:23:57.160Z,11.35
2023-04-02T18:27:12.416Z,11.06
2023-04-02T18:30:34.639Z,11.20
2023-04-02T18:34:01.187Z,10.97
2023-04-02T18:37:29.677Z,10.91
2023-04-02T18:40:49.936Z,10.81
2023-04-02T18:43:59.237Z,10.89
2023-04-02T18:47:21.818Z,10.54
2023-04-02T18:50:30.281Z,10.28
2023-04-02T18:53:34.177Z,10.32
2023-04-02T18:56:41.361Z,10.32
2023-04-02T18:59:44.953Z,10.16
2023-04-02T19:02:52.085Z,10.02
2023-04-02T19:06:19.843Z,9.93
2023-04-02T19:09:27.516Z,9.97
2023-04-02T19:12:33.877Z,9.76
2023-04-02T19:16:08.792Z,9.55
2023-04-02T19:19:21.941Z,9.48
2023-04-02T19:22:33.528Z,9.53
2023-04-02T19:25:44.577Z,9.43
2023-04-02T19:29:10.356Z,9.40
2023-04-02T19:32:35.040Z,9.51
2023-04-02T19:36:03.488Z,9.48
2023-04-02T19:39:25.401Z,9.30
2023-04-02T19:42:52.688Z,9.34
2023-04-02T19:45:56.224Z,9.21
2023-04-02T19:49:13.233Z,9.27
2023-04-02T19:52:16.755Z,9.32
2023-04-02T19:55:22.388Z,9.36
2023-04-02T19:58:28.893Z,9.47
2023-04-02T20:01:34.143Z,9.60
2023-04-02T20:04:37.591Z,9.41
2023-04-02T20:07:40.388Z,9.56
2023-04-02T20:10:43.724Z,9.48
2023-04-02T20:13:46.549Z,9.47
2023-04-02T20:16:49.479Z,9.54
2023-04-02T20:19:52.372Z,9.50
2023-04-02T20:22:55.674Z,9.47
2023-04-02T20:25:59.520Z,9.51
2023-04-02T20:29:03.170Z,9.57
2023-04-02T20:32:07.522Z,9.60
2023-04-02T20:35:10.492Z,9.53
2023-04-02T20:38:13.416Z,9.63
2023-04-02T20:41:19.357Z,9.64
2023-04-02T20:44:22.313Z,9.60
2023-04-02T20:47:25.624Z,9.61
2023-04-02T20:50:29.040Z,9.65
2023-04-02T20:53:34.497Z,9.48
2023-04-02T20:56:37.268Z,9.53
2023-04-02T20:59:40.336Z,9.63
2023-04-02T21:02:42.983Z,9.73
2023-04-02T21:05:47.109Z,9.83
2023-04-02T21:08:50.091Z,9.75
2023-04-02T21:11:52.963Z,9.74
2023-04-02T21:14:59.740Z,9.57
2023-04-02T21:18:05.828Z,9.59
2023-04-02T21:21:08.624Z,9.61
2023-04-02T21:24:11.713Z,9.80
2023-04-02T21:27:14.235Z,9.95
2023-04-02T21:30:17.432Z,9.85
2023-04-02T21:33:20.018Z,9.89
2023-04-02T21:36:28.058Z,9.83
2023-04-02T21:39:30.883Z,9.87
2023-04-02T21:42:33.642Z,9.79
2023-04-02T21:45:36.550Z,9.81
2023-04-02T21:48:40.720Z,9.57
2023-04-02T21:51:44.475Z,9.23
2023-04-02T21:54:47.344Z,9.01
2023-04-02T21:57:49.870Z,8.87
2023-04-02T22:00:52.711Z,8.88
2023-04-02T22:03:57.145Z,8.86
2023-04-02T22:06:59.805Z,8.81
2023-04-02T22:10:02.968Z,8.60
2023-04-02T22:13:05.476Z,8.70
2023-04-02T22:16:29.247Z,8.67
2023-04-02T22:19:33.057Z,8.62
2023-04-02T22:22:35.908Z,8.71
2023-04-02T22:25:38.487Z,8.75
2023-04-02T22:28:41.639Z,8.65
2023-04-02T22:31:44.790Z,8.65
2023-04-02T22:34:47.621Z,8.51
2023-04-02T22:37:50.197Z,8.56
2023-04-02T22:40:53.065Z,8.48
2023-04-02T22:43:56.633Z,8.48
2023-04-02T22:46:59.438Z,8.30
2023-04-02T22:50:01.990Z,8.49
2023-04-02T22:53:04.973Z,8.46
2023-04-02T22:56:13.642Z,8.26
2023-04-02T22:59:16.814Z,8.35
2023-04-02T23:02:19.417Z,8.17
2023-04-02T23:05:22.675Z,8.16
2023-04-02T23:08:25.340Z,8.27
2023-04-02T23:11:28.332Z,8.26
2023-04-02T23:14:31.015Z,8.24
2023-04-02T23:17:35.906Z,8.24
2023-04-02T23:20:38.597Z,8.28
2023-04-02T23:23:41.600Z,8.26
2023-04-02T23:26:44.158Z,8.27
2023-04-02T23:29:47.086Z,8.21
2023-04-02T23:32:50.078Z,8.26
2023-04-02T23:35:52.913Z,8.25
2023-04-02T23:38:59.682Z,8.28
2023-04-02T23:42:03.087Z,8.30
2023-04-02T23:45:05.989Z,8.22
2023-04-02T23:48:09.252Z,8.12
2023-04-02T23:51:11.937Z,8.08
2023-04-02T23:54:15.084Z,7.87
2023-04-02T23:57:17.927Z,7.87
